KJFK/JFK METAR and TAF weather

Enter ICAO airport designator
Station Type Date Time Source
KJFK METAR 2022/01/29 09:51 UTC NOAA

KJFK 290951Z 36023G32KT 1SM R04R/4500VP6000FT -SN BLSN BR OVC017 M05/M07 A2971 RMK AO2 PK WND 36037/0919 SFC VIS 1 1/4 SLP059 P0000 T10501067 $


Station Type Date Time Source
KJFK Decoded METAR 2022/01/29 09:51 UTC NOAA

KENNEDY INTERNATIONAL AIRPORT , NY, United States (KJFK) 40-38N 073-46W 9M
Jan 29, 2022 - 04:51 AM EST / 2022.01.29 0951 UTC
Wind: from the N (360 degrees) at 26 MPH (23 KT) gusting to 37 MPH (32 KT):0
Visibility: 1 mile(s):0
Sky conditions: overcast
Weather: light snow; blowing snow; mist
Precipitation last hour: A trace
Temperature: 23.0 F (-5.0 C)
Windchill: 6 F (-14 C):1
Dew Point: 19.9 F (-6.7 C)
Relative Humidity: 87%
Pressure (altimeter): 29.71 in. Hg (1006 hPa)
ob: KJFK 290951Z 36023G32KT 1SM R04R/4500VP6000FT -SN BLSN BR OVC017 M05/M07 A2971 RMK AO2 PK WND 36037/0919 SFC VIS 1 1/4 SLP059 P0000 T10501067
cycle: 10

Station Type Date Time Source
KJFK TAF 2022/01/29 09:38 UTC NOAA

TAF
AMD KJFK 290831Z 2909/3012 01025G35KT 1/2SM SN BLSN FZFG BKN006 OVC010
FM291500 35028G37KT 1/2SM -SN BLSN FZFG SCT008 OVC015
TEMPO 2915/2919 1/4SM SN BLSN FZFG
FM291900 32028G37KT 1SM -SN BR BLSN OVC015
FM292100 32025G35KT P6SM VCSH SCT025 BKN035
FM300200 32022G32KT P6SM BKN060

Example: see airport list